Time;durP1;ratioP1;P1;durP2;ratioP2;P2;SDS_P1;SDS_P2;PMS_P1;PMS_P2;Temp;Humidity;BMP_temperature;BMP_pressure;BME280_temperature;BME280_humidity;BME280_pressure;Samples;Min_cycle;Max_cycle;Signal;HPM_P1;HPM_P2
2022/05/18 00:00:51;;;;;;;;;8.75;8.00;;;;;19.53;61.45;101815.16;5027870;28;8863;-66
2022/05/18 00:03:21;;;;;;;;;7.00;7.00;;;;;19.52;61.42;101811.56;5028990;28;8836;-66
2022/05/18 00:05:48;;;;;;;;;9.00;7.00;;;;;19.50;61.50;101821.06;5027311;28;8833;-67
2022/05/18 00:08:15;;;;;;;;;11.25;9.25;;;;;19.49;61.51;101822.13;5027158;28;8829;-67
2022/05/18 00:10:44;;;;;;;;;7.25;6.75;;;;;19.47;61.65;101825.06;5032961;28;8920;-66
2022/05/18 00:13:11;;;;;;;;;7.75;7.25;;;;;19.47;61.91;101826.97;5028872;28;8821;-67
2022/05/18 00:15:38;;;;;;;;;9.50;9.50;;;;;19.43;61.75;101825.75;5029622;28;9499;-66
2022/05/18 00:18:05;;;;;;;;;9.50;9.50;;;;;19.39;61.99;101824.56;5027676;28;8906;-64
2022/05/18 00:20:32;;;;;;;;;7.50;7.25;;;;;19.35;62.36;101831.53;5023814;28;8848;-66
2022/05/18 00:23:01;;;;;;;;;10.50;10.25;;;;;19.33;62.40;101836.41;5028643;28;8824;-67
2022/05/18 00:25:34;;;;;;;;;8.50;8.50;;;;;19.29;62.60;101837.91;5029936;28;8836;-67
2022/05/18 00:28:01;;;;;;;;;10.50;10.50;;;;;19.24;62.80;101836.72;5030794;28;10635;-66
2022/05/18 00:30:30;;;;;;;;;6.75;6.75;;;;;19.22;62.69;101838.81;5029629;28;8916;-66
2022/05/18 00:33:02;;;;;;;;;8.75;7.00;;;;;19.22;62.98;101838.81;5028125;28;8928;-69
2022/05/18 00:35:30;;;;;;;;;11.25;10.25;;;;;19.23;63.08;101839.66;5026956;28;8886;-67
2022/05/18 00:37:57;;;;;;;;;7.75;7.00;;;;;19.21;63.02;101837.16;5029985;28;8828;-66
2022/05/18 00:40:24;;;;;;;;;7.75;7.75;;;;;19.17;63.10;101835.94;5029617;28;8937;-67
2022/05/18 00:42:51;;;;;;;;;9.25;7.75;;;;;19.16;62.93;101836.16;5024166;28;8906;-66
2022/05/18 00:45:19;;;;;;;;;8.00;7.67;;;;;19.15;63.22;101832.59;5027366;28;8841;-66
2022/05/18 00:47:46;;;;;;;;;8.75;8.75;;;;;19.13;63.46;101833.91;5028195;28;8941;-66
2022/05/18 00:50:20;;;;;;;;;10.33;10.33;;;;;19.13;63.46;101837.47;5022578;28;8832;-67
2022/05/18 00:53:00;;;;;;;;;7.50;7.50;;;;;19.10;63.60;101840.63;5029627;28;8967;-67
2022/05/18 00:55:30;;;;;;;;;7.25;7.25;;;;;19.11;63.70;101833.28;5029050;28;8836;-67
2022/05/18 00:58:09;;;;;;;;;10.25;10.00;;;;;19.09;63.80;101846.34;5029486;28;8832;-66
2022/05/18 01:00:38;;;;;;;;;12.00;11.33;;;;;19.03;63.96;101839.88;5028833;28;8824;-66
2022/05/18 01:03:18;;;;;;;;;10.33;10.33;;;;;19.03;63.85;101843.41;5031182;28;8928;-66
2022/05/18 01:05:51;;;;;;;;;9.00;9.00;;;;;19.01;63.99;101851.00;5025835;28;8930;-66
2022/05/18 01:08:29;;;;;;;;;13.50;13.50;;;;;19.00;63.80;101848.53;5026119;28;8848;-66
2022/05/18 01:10:56;;;;;;;;;12.00;10.67;;;;;19.00;64.07;101845.78;5028522;28;9562;-66
2022/05/18 01:13:22;;;;;;;;;14.00;13.33;;;;;18.96;64.25;101847.31;5030559;28;8937;-66
2022/05/18 01:15:50;;;;;;;;;15.00;13.00;;;;;18.94;64.13;101852.13;5030553;28;8925;-66
2022/05/18 01:18:17;;;;;;;;;12.33;12.33;;;;;18.89;64.39;101855.53;5025411;28;9064;-66
2022/05/18 01:20:45;;;;;;;;;11.33;11.00;;;;;18.88;64.43;101845.69;5028627;28;9010;-66
2022/05/18 01:23:30;;;;;;;;;8.00;8.00;;;;;18.87;64.47;101851.38;5030007;28;8913;-66
2022/05/18 01:26:11;;;;;;;;;12.00;10.67;;;;;18.86;64.59;101853.25;5030929;28;8971;-67
2022/05/18 01:28:40;;;;;;;;;12.33;12.00;;;;;18.86;64.38;101850.53;5030681;28;9022;-66
2022/05/18 01:31:07;;;;;;;;;13.67;12.00;;;;;18.87;64.59;101852.19;5031406;28;9931;-66
2022/05/18 01:33:35;;;;;;;;;18.00;12.00;;;;;18.83;64.54;101848.25;5030941;28;9201;-66
2022/05/18 01:36:03;;;;;;;;;8.00;7.67;;;;;18.84;64.59;101840.91;5031877;28;9164;-66
2022/05/18 01:38:31;;;;;;;;;12.67;11.00;;;;;18.81;64.46;101844.09;5027195;28;9003;-66
2022/05/18 01:41:19;;;;;;;;;16.33;14.33;;;;;18.83;64.54;101840.06;5031304;28;8974;-66
2022/05/18 01:43:50;;;;;;;;;15.00;14.00;;;;;18.82;64.65;101838.41;5024592;28;9014;-66
2022/05/18 01:46:19;;;;;;;;;17.67;15.33;;;;;18.80;64.59;101839.66;5025722;28;8840;-66
2022/05/18 01:48:52;;;;;;;;;18.33;18.33;;;;;18.77;64.60;101844.53;5023334;28;9101;-66
2022/05/18 01:51:33;;;;;;;;;14.33;14.33;;;;;18.73;64.46;101846.03;5031311;28;9181;-66
2022/05/18 01:53:59;;;;;;;;;14.33;14.33;;;;;18.70;64.86;101834.75;5026916;28;9245;-67
2022/05/18 01:56:26;;;;;;;;;17.33;17.00;;;;;18.66;64.58;101842.50;5030505;28;9072;-65
2022/05/18 01:58:53;;;;;;;;;17.33;17.33;;;;;18.62;64.69;101826.81;5030848;28;9248;-67
2022/05/18 02:01:20;;;;;;;;;20.00;18.67;;;;;18.57;64.89;101835.66;5030934;28;9151;-67
2022/05/18 02:03:48;;;;;;;;;14.67;14.67;;;;;18.55;65.05;101821.41;5031186;28;9884;-66
2022/05/18 02:06:16;;;;;;;;;15.00;14.00;;;;;18.52;64.96;101825.44;5030548;28;9186;-66
2022/05/18 02:08:42;;;;;;;;;14.00;13.00;;;;;18.52;64.82;101825.44;5025714;28;9307;-67
2022/05/18 02:11:14;;;;;;;;;21.33;18.00;;;;;18.50;64.57;101824.81;5026390;28;9082;-68
2022/05/18 02:13:42;;;;;;;;;18.67;18.67;;;;;18.47;65.05;101819.81;5031455;28;9439;-69
2022/05/18 02:16:09;;;;;;;;;21.33;18.67;;;;;18.42;64.91;101816.06;5029591;28;9342;-66
2022/05/18 02:18:36;;;;;;;;;17.67;17.33;;;;;18.41;64.84;101817.97;5029974;28;9268;-66
2022/05/18 02:21:04;;;;;;;;;19.33;16.67;;;;;18.37;64.86;101822.19;5029496;28;9237;-66
2022/05/18 02:23:31;;;;;;;;;18.67;17.67;;;;;18.36;65.04;101827.88;5030539;28;9214;-66
2022/05/18 02:25:58;;;;;;;;;14.67;14.00;;;;;18.33;64.84;101818.25;5027399;28;9124;-65
2022/05/18 02:28:25;;;;;;;;;18.67;14.33;;;;;18.33;64.94;101814.69;5029269;28;9072;-66
2022/05/18 02:30:52;;;;;;;;;20.67;17.00;;;;;18.31;65.34;101812.19;5031021;28;9866;-66
2022/05/18 02:33:18;;;;;;;;;18.33;17.67;;;;;18.31;64.91;101814.06;5031987;28;9309;-66
2022/05/18 02:35:45;;;;;;;;;21.67;20.00;;;;;18.27;64.92;101816.41;5029785;28;9084;-67
2022/05/18 02:38:11;;;;;;;;;19.67;19.67;;;;;18.24;65.25;101811.41;5030029;28;9289;-66
2022/05/18 02:40:37;;;;;;;;;21.67;18.00;;;;;18.22;65.47;101806.16;5033525;28;9468;-66
2022/05/18 02:43:04;;;;;;;;;20.33;18.33;;;;;18.20;65.42;101810.19;5030258;28;9455;-67
2022/05/18 02:45:31;;;;;;;;;16.00;12.00;;;;;18.17;65.68;101814.16;5032336;28;9354;-67
2022/05/18 02:47:57;;;;;;;;;18.00;16.33;;;;;18.16;65.79;101807.06;5030835;28;9388;-66
2022/05/18 02:50:24;;;;;;;;;15.33;15.33;;;;;18.15;65.75;101807.25;5029850;28;9247;-66
2022/05/18 02:52:50;;;;;;;;;19.33;17.67;;;;;18.15;65.77;101818.16;5027711;28;9227;-66
2022/05/18 02:58:02;;;;;;;;;16.00;16.00;;;;;18.14;66.26;101821.94;5034956;28;9430;-66
2022/05/18 03:00:28;;;;;;;;;15.33;13.67;;;;;18.13;66.14;101818.41;5027445;28;10197;-65
2022/05/18 03:02:55;;;;;;;;;17.67;14.67;;;;;18.13;66.51;101817.56;5022710;28;9150;-66
2022/05/18 03:05:22;;;;;;;;;19.00;17.00;;;;;18.13;66.32;101823.00;5030587;28;9159;-64
2022/05/18 03:07:49;;;;;;;;;18.00;18.00;;;;;18.14;66.64;101821.94;5029149;28;9268;-66
2022/05/18 03:10:16;;;;;;;;;18.33;17.00;;;;;18.14;66.26;101830.97;5020096;28;9290;-65
2022/05/18 03:12:46;;;;;;;;;20.25;18.00;;;;;18.15;66.56;101831.78;5030654;28;10106;-66
2022/05/18 03:15:13;;;;;;;;;22.33;20.33;;;;;18.16;66.63;101833.47;5029789;28;9366;-65
2022/05/18 03:17:40;;;;;;;;;29.25;24.75;;;;;18.14;66.18;101836.41;5028188;28;9414;-65
2022/05/18 03:20:08;;;;;;;;;19.25;18.50;;;;;18.14;66.36;101843.75;5030176;28;9732;-64
2022/05/18 03:25:21;;;;;;;;;20.33;19.00;;;;;18.12;66.22;101837.69;5023276;28;9429;-66
2022/05/18 03:27:49;;;;;;;;;23.25;21.75;;;;;18.11;66.49;101836.88;5027791;28;9390;-65
2022/05/18 03:30:18;;;;;;;;;26.00;23.25;;;;;18.10;66.44;101837.06;5030334;28;9541;-67
2022/05/18 03:32:44;;;;;;;;;24.25;19.00;;;;;18.11;66.32;101839.59;5029312;28;9629;-64
2022/05/18 03:35:11;;;;;;;;;23.25;21.00;;;;;18.10;66.37;101834.34;5017918;28;9487;-65
2022/05/18 03:37:38;;;;;;;;;26.67;21.00;;;;;18.09;66.34;101829.97;5021045;28;9617;-65
2022/05/18 03:40:05;;;;;;;;;23.67;22.00;;;;;18.08;66.81;101844.66;5027056;28;10176;-63
2022/05/18 03:42:34;;;;;;;;;19.67;17.00;;;;;18.08;66.39;101848.19;5028381;28;10067;-66
2022/05/18 03:45:00;;;;;;;;;23.33;23.33;;;;;18.05;66.42;101851.34;5025889;28;9232;-66
2022/05/18 03:47:27;;;;;;;;;17.67;17.67;;;;;18.07;66.39;101848.41;5030776;28;9298;-65
2022/05/18 03:49:53;;;;;;;;;18.67;17.00;;;;;18.08;66.31;101853.66;5029358;28;10079;-65
2022/05/18 03:52:20;;;;;;;;;22.00;21.00;;;;;18.09;66.66;101849.03;5026813;28;9150;-65
2022/05/18 03:54:46;;;;;;;;;17.00;13.67;;;;;18.10;66.48;101861.59;5030117;28;9352;-66
2022/05/18 03:57:13;;;;;;;;;19.33;16.67;;;;;18.11;66.38;101869.56;5026982;28;9243;-65
2022/05/18 03:59:39;;;;;;;;;20.33;19.00;;;;;18.12;66.42;101860.34;5027026;28;9309;-65
2022/05/18 04:02:06;;;;;;;;;12.33;12.33;;;;;18.10;66.23;101856.97;5029367;28;10191;-65
2022/05/18 04:04:33;;;;;;;;;17.00;15.67;;;;;18.13;65.99;101872.06;5029802;28;9232;-65
2022/05/18 04:06:59;;;;;;;;;17.33;16.67;;;;;18.13;65.92;101861.16;5027919;28;9160;-65
2022/05/18 04:09:26;;;;;;;;;20.00;17.00;;;;;18.13;66.16;101870.16;5026887;28;9298;-65
2022/05/18 04:11:52;;;;;;;;;16.67;15.33;;;;;18.16;65.83;101877.09;5028749;28;9315;-65
2022/05/18 04:14:19;;;;;;;;;17.67;16.67;;;;;18.17;66.07;101874.13;5029265;28;9370;-65
2022/05/18 04:16:49;;;;;;;;;16.00;14.67;;;;;18.17;66.16;101878.75;5029773;28;9291;-65
2022/05/18 04:19:16;;;;;;;;;20.00;18.33;;;;;18.17;66.29;101881.47;5058292;23;9367;-66
2022/05/18 04:21:42;;;;;;;;;17.33;17.00;;;;;18.20;66.19;101895.50;5057196;28;9222;-66
2022/05/18 04:24:09;;;;;;;;;21.67;21.33;;;;;18.22;66.36;101898.81;5051271;28;9363;-67
2022/05/18 04:26:35;;;;;;;;;22.00;19.00;;;;;18.25;66.14;101911.19;5041751;28;9302;-66
2022/05/18 04:29:02;;;;;;;;;24.33;23.67;;;;;18.26;65.98;101910.13;5036425;28;9293;-66
2022/05/18 04:31:28;;;;;;;;;17.00;17.00;;;;;18.28;65.90;101916.22;5028679;28;9320;-66
2022/05/18 04:33:55;;;;;;;;;25.00;23.67;;;;;18.30;65.92;101916.81;5024788;28;9235;-67
2022/05/18 04:36:21;;;;;;;;;25.25;24.00;;;;;18.33;65.76;101924.56;5016510;28;9447;-68
2022/05/18 04:38:48;;;;;;;;;24.67;23.67;;;;;18.34;65.65;101917.22;5039460;28;9507;-68
2022/05/18 04:41:14;;;;;;;;;22.25;22.00;;;;;18.35;65.78;101924.31;5024650;28;10218;-67
2022/05/18 04:43:41;;;;;;;;;25.00;25.00;;;;;18.35;65.57;101918.88;5023878;28;9672;-68
2022/05/18 04:46:07;;;;;;;;;24.75;21.25;;;;;18.38;65.46;101913.81;5017593;28;10220;-67
2022/05/18 04:48:34;;;;;;;;;21.00;19.33;;;;;18.41;65.42;101918.00;5021960;28;9611;-67
2022/05/18 04:51:05;;;;;;;;;26.00;23.50;;;;;18.45;65.34;101920.06;5021890;28;9239;-67
2022/05/18 04:53:33;;;;;;;;;23.67;23.33;;;;;18.54;65.10;101913.28;5033912;28;9589;-67
2022/05/18 04:56:00;;;;;;;;;24.00;21.33;;;;;18.64;64.72;101914.72;5027104;28;9395;-67
2022/05/18 04:58:27;;;;;;;;;15.00;13.67;;;;;18.78;64.41;101924.47;5026787;28;9269;-68
2022/05/18 05:00:58;;;;;;;;;16.33;16.33;;;;;18.89;64.04;101912.00;5021322;28;9271;-65
2022/05/18 05:03:25;;;;;;;;;19.00;19.00;;;;;18.94;63.63;101912.16;5021881;28;9071;-66
2022/05/18 05:05:59;;;;;;;;;21.00;19.33;;;;;18.97;63.36;101919.91;5031763;28;9076;-66
2022/05/18 05:08:25;;;;;;;;;19.67;18.00;;;;;19.00;63.07;101912.13;5041168;28;10202;-66
2022/05/18 05:10:52;;;;;;;;;19.33;16.67;;;;;19.06;62.84;101918.56;5022131;28;9095;-64
2022/05/18 05:13:18;;;;;;;;;17.25;15.50;;;;;19.12;62.37;101917.69;5027527;28;9012;-66
2022/05/18 05:15:46;;;;;;;;;17.67;16.67;;;;;19.14;61.98;101928.34;5030104;28;8809;-66
2022/05/18 05:18:13;;;;;;;;;15.00;15.00;;;;;19.13;62.05;101922.06;5034360;28;8995;-65
2022/05/18 05:20:39;;;;;;;;;16.00;14.75;;;;;19.16;61.83;101926.22;5014222;28;8924;-64
2022/05/18 05:23:06;;;;;;;;;19.00;17.00;;;;;19.15;61.90;101925.41;5037208;28;8864;-65
2022/05/18 05:25:32;;;;;;;;;16.33;16.00;;;;;19.17;61.75;101919.72;5027381;28;8997;-65
2022/05/18 05:27:59;;;;;;;;;16.00;16.00;;;;;19.18;61.65;101918.66;5027568;28;8921;-65
2022/05/18 05:30:27;;;;;;;;;16.00;16.00;;;;;19.19;61.46;101921.16;5021434;28;8931;-66
2022/05/18 05:32:53;;;;;;;;;21.00;19.67;;;;;19.21;61.02;101923.69;5029373;28;8917;-65
2022/05/18 05:35:20;;;;;;;;;17.00;15.67;;;;;19.24;61.19;101928.66;5019950;28;9070;-65
2022/05/18 05:37:47;;;;;;;;;17.67;16.00;;;;;19.27;61.07;101920.03;5039161;28;8986;-65
2022/05/18 05:40:15;;;;;;;;;18.33;18.33;;;;;19.32;61.08;101922.91;5014800;28;9006;-66
2022/05/18 05:42:42;;;;;;;;;22.67;21.00;;;;;19.35;60.98;101924.38;5029917;28;9144;-66
2022/05/18 05:45:09;;;;;;;;;13.33;12.00;;;;;19.38;60.84;101922.03;5034022;28;9329;-64
2022/05/18 05:47:35;;;;;;;;;13.75;13.50;;;;;19.41;60.75;101927.03;5033755;28;8954;-66
2022/05/18 05:50:08;;;;;;;;;15.67;15.00;;;;;19.43;60.77;101937.72;5029531;28;8830;-67
2022/05/18 05:52:35;;;;;;;;;23.33;22.67;;;;;19.45;60.76;101938.34;5024766;28;9014;-64
2022/05/18 05:55:01;;;;;;;;;23.67;23.67;;;;;19.44;60.89;101926.56;5027155;28;9766;-66
2022/05/18 05:57:28;;;;;;;;;27.67;20.33;;;;;19.47;60.86;101934.31;5027904;28;9103;-66
2022/05/18 05:59:55;;;;;;;;;22.67;18.67;;;;;19.48;60.89;101927.78;5024151;28;9275;-66
2022/05/18 06:02:22;;;;;;;;;19.67;16.67;;;;;19.48;60.83;101935.97;5027902;28;8990;-66
2022/05/18 06:04:48;;;;;;;;;27.33;24.33;;;;;19.47;60.65;101938.94;5032038;28;8988;-66
2022/05/18 06:07:15;;;;;;;;;24.00;23.00;;;;;19.45;60.92;101944.63;5032518;28;9260;-64
2022/05/18 06:09:41;;;;;;;;;26.00;26.00;;;;;19.43;60.85;101944.00;5032308;28;9307;-66
2022/05/18 06:12:08;;;;;;;;;28.00;25.00;;;;;19.42;61.11;101955.16;5025930;28;9337;-67
2022/05/18 06:14:35;;;;;;;;;24.67;21.33;;;;;19.43;61.21;101963.13;5020632;28;9421;-66
2022/05/18 06:17:02;;;;;;;;;25.00;25.00;;;;;19.43;61.31;101962.28;5020147;28;9289;-66
2022/05/18 06:19:31;;;;;;;;;29.00;22.33;;;;;19.44;61.22;101964.78;5019760;28;9347;-66
2022/05/18 06:21:58;;;;;;;;;22.00;21.00;;;;;19.43;61.47;101967.75;5030667;28;9278;-66
2022/05/18 06:24:24;;;;;;;;;22.33;22.00;;;;;19.42;61.81;101972.38;5032009;28;9158;-66
2022/05/18 06:26:51;;;;;;;;;31.00;26.50;;;;;19.46;61.72;101972.78;5016960;28;9293;-66
2022/05/18 06:29:17;;;;;;;;;26.00;25.00;;;;;19.49;61.82;101969.59;5018377;28;9398;-62
2022/05/18 06:31:43;;;;;;;;;30.25;29.25;;;;;19.56;61.91;101980.44;5021682;28;9328;-67
2022/05/18 06:34:10;;;;;;;;;31.00;27.33;;;;;19.62;61.90;101979.56;5018351;28;9535;-65
2022/05/18 06:36:37;;;;;;;;;26.33;25.00;;;;;19.71;61.85;101981.78;5020275;28;9475;-66
2022/05/18 06:39:04;;;;;;;;;21.00;20.00;;;;;19.81;61.51;101978.53;5021348;28;9281;-64
2022/05/18 06:41:34;;;;;;;;;22.00;20.33;;;;;19.90;61.52;101985.34;5019856;28;9279;-66
2022/05/18 06:44:03;;;;;;;;;29.33;25.67;;;;;19.90;61.62;101987.25;5019654;28;9394;-66
2022/05/18 06:46:33;;;;;;;;;20.67;19.00;;;;;19.88;61.95;102001.13;5023032;28;9356;-66
2022/05/18 06:49:01;;;;;;;;;19.67;18.67;;;;;19.87;61.96;101998.63;5022194;28;9291;-65
2022/05/18 06:51:31;;;;;;;;;24.67;23.67;;;;;19.83;62.38;102000.16;5019937;28;9070;-65
2022/05/18 06:53:58;;;;;;;;;27.00;25.67;;;;;19.79;62.74;102007.13;5023443;28;9305;-65
2022/05/18 06:56:28;;;;;;;;;27.00;23.00;;;;;19.74;62.83;102011.38;5023062;28;9399;-66
2022/05/18 06:58:55;;;;;;;;;23.33;21.00;;;;;19.75;63.04;102010.31;5021092;28;9348;-65
2022/05/18 07:01:23;;;;;;;;;14.75;14.00;;;;;19.79;62.88;102013.41;5021663;28;9074;-67
2022/05/18 07:03:50;;;;;;;;;21.67;19.67;;;;;19.81;63.08;102010.44;5019866;28;8888;-67
2022/05/18 07:06:26;;;;;;;;;16.33;14.00;;;;;19.79;63.68;102023.53;5023438;28;9060;-65
2022/05/18 07:08:54;;;;;;;;;15.33;13.67;;;;;19.78;63.52;102027.31;5012287;28;8946;-64
2022/05/18 07:11:22;;;;;;;;;19.33;17.67;;;;;19.76;63.73;102025.63;5013036;28;9034;-65
2022/05/18 07:13:52;;;;;;;;;11.50;11.00;;;;;19.80;63.86;102028.75;5012238;28;8935;-63
2022/05/18 07:16:20;;;;;;;;;16.00;14.00;;;;;19.84;63.75;102024.50;5019965;28;8829;-66
2022/05/18 07:18:47;;;;;;;;;15.75;14.00;;;;;19.86;63.94;102022.38;5024097;28;8938;-65
2022/05/18 07:21:15;;;;;;;;;16.75;14.25;;;;;19.91;63.92;102029.91;5016844;28;8831;-65
2022/05/18 07:23:41;;;;;;;;;9.00;8.75;;;;;19.94;64.08;102032.19;5020193;28;8906;-67
2022/05/18 07:26:08;;;;;;;;;12.00;11.25;;;;;19.98;63.92;102027.94;5034184;28;8823;-66
2022/05/18 07:28:34;;;;;;;;;11.75;11.75;;;;;20.04;64.34;102020.72;5020494;28;8847;-67
2022/05/18 07:31:01;;;;;;;;;10.00;8.50;;;;;20.13;64.09;102033.81;5016550;28;8885;-66
2022/05/18 07:33:29;;;;;;;;;10.00;9.25;;;;;20.20;63.88;102031.03;5006880;28;8848;-66
2022/05/18 07:35:56;;;;;;;;;15.00;13.50;;;;;20.17;63.62;102032.31;5020224;28;8847;-67
2022/05/18 07:38:26;;;;;;;;;12.25;11.25;;;;;20.13;63.56;102027.53;5018690;28;8926;-66
2022/05/18 07:41:10;;;;;;;;;11.00;10.25;;;;;20.09;63.33;102026.31;5018230;28;8848;-67
2022/05/18 07:43:38;;;;;;;;;9.00;8.25;;;;;20.12;63.27;102029.44;5025359;28;8859;-66
2022/05/18 07:46:05;;;;;;;;;14.50;13.75;;;;;20.14;63.28;102024.59;5018188;28;8835;-66
2022/05/18 07:48:33;;;;;;;;;14.50;12.50;;;;;20.16;63.26;102030.63;5019303;28;8921;-68
2022/05/18 07:50:59;;;;;;;;;11.50;10.50;;;;;20.18;62.92;102030.44;5026776;28;9613;-66
2022/05/18 07:53:26;;;;;;;;;14.25;14.00;;;;;20.22;62.52;102028.91;5027317;28;8876;-67
2022/05/18 07:55:53;;;;;;;;;12.75;11.00;;;;;20.29;62.37;102039.75;5011384;28;8909;-66
2022/05/18 07:58:20;;;;;;;;;10.75;10.00;;;;;20.33;62.13;102030.00;5011220;28;8909;-67
2022/05/18 08:00:47;;;;;;;;;13.00;13.00;;;;;20.35;62.00;102039.66;5017573;28;9628;-66
2022/05/18 08:03:15;;;;;;;;;11.00;9.25;;;;;20.40;61.93;102045.28;5020549;28;8858;-67
2022/05/18 08:05:43;;;;;;;;;11.75;9.25;;;;;20.45;61.83;102044.56;5023629;28;8820;-66
2022/05/18 08:08:17;;;;;;;;;16.25;13.00;;;;;20.51;61.65;102042.88;5025848;28;8828;-66
2022/05/18 08:16:15;;;;;;;;;13.00;13.00;;;;;20.56;61.38;102057.50;5022683;28;9563;-67
2022/05/18 08:18:43;;;;;;;;;12.75;12.00;;;;;20.61;61.08;102062.28;5015899;28;8824;-67
2022/05/18 08:21:10;;;;;;;;;12.75;11.50;;;;;20.63;60.74;102065.63;5019799;28;8839;-66
2022/05/18 08:23:36;;;;;;;;;11.50;11.50;;;;;20.65;60.47;102064.31;5018947;28;8913;-68
2022/05/18 08:26:03;;;;;;;;;13.75;13.25;;;;;20.71;60.06;102065.31;5016874;28;8909;-67
2022/05/18 08:28:30;;;;;;;;;19.00;19.00;;;;;20.78;58.80;102081.63;5021415;28;8863;-68
2022/05/18 08:30:57;;;;;;;;;9.00;9.00;;;;;20.78;58.39;102078.88;5020325;28;8851;-66
2022/05/18 08:33:24;;;;;;;;;15.75;13.00;;;;;20.81;58.02;102078.44;5021682;28;8820;-67
2022/05/18 08:35:50;;;;;;;;;14.75;14.25;;;;;20.83;57.80;102079.03;5020642;28;8894;-67
2022/05/18 08:38:19;;;;;;;;;21.75;19.50;;;;;20.83;57.50;102077.16;5022113;28;8890;-67
2022/05/18 08:40:54;;;;;;;;;12.00;12.00;;;;;20.87;58.00;102088.47;5020374;28;8986;-66
2022/05/18 08:43:27;;;;;;;;;14.25;13.50;;;;;20.94;57.97;102091.91;5021719;28;8831;-67
2022/05/18 08:46:01;;;;;;;;;20.25;19.00;;;;;20.99;57.55;102094.81;5015965;28;8945;-67
2022/05/18 08:48:47;;;;;;;;;15.00;15.00;;;;;21.02;57.49;102098.97;5019680;28;8837;-67
2022/05/18 08:51:16;;;;;;;;;17.25;14.00;;;;;21.08;57.63;102098.03;5020870;28;8894;-66
2022/05/18 08:54:12;;;;;;;;;20.50;18.75;;;;;21.14;57.16;102103.41;5019426;28;8911;-66
2022/05/18 08:56:41;;;;;;;;;18.75;18.75;;;;;21.13;56.71;102098.16;5027299;28;9680;-67
2022/05/18 08:59:18;;;;;;;;;13.00;13.00;;;;;21.14;56.63;102108.03;5019293;28;8847;-68
2022/05/18 09:01:49;;;;;;;;;16.50;15.50;;;;;21.19;56.36;102106.28;5022242;28;8817;-67
2022/05/18 09:04:20;;;;;;;;;13.75;13.00;;;;;21.18;56.42;102107.34;5020501;28;9557;-66
2022/05/18 09:06:54;;;;;;;;;15.25;13.00;;;;;21.26;56.67;102108.09;5018413;28;8877;-67
2022/05/18 09:12:14;;;;;;;;;19.00;17.75;;;;;21.39;56.10;102114.22;5019883;28;8833;-68
2022/05/18 09:14:44;;;;;;;;;21.00;20.25;;;;;21.42;55.67;102108.25;5018519;28;8918;-67
2022/05/18 09:17:34;;;;;;;;;18.00;16.50;;;;;21.49;55.65;102113.63;5020108;28;8839;-66
2022/05/18 09:20:12;;;;;;;;;19.00;19.00;;;;;21.58;55.81;102123.19;5019803;28;8874;-66
2022/05/18 09:23:05;;;;;;;;;19.25;18.25;;;;;21.62;55.38;102112.56;5023639;28;8902;-66
2022/05/18 09:25:47;;;;;;;;;23.67;22.67;;;;;21.70;55.48;102109.47;5023345;28;8809;-66
2022/05/18 09:28:49;;;;;;;;;22.50;21.00;;;;;21.80;55.08;102104.25;5023881;28;9020;-65
2022/05/18 09:31:37;;;;;;;;;29.00;24.00;;;;;21.87;54.20;102118.66;5024652;28;9566;-67
2022/05/18 09:34:20;;;;;;;;;26.00;22.33;;;;;21.81;53.82;102113.31;5024430;28;8947;-67
2022/05/18 09:37:10;;;;;;;;;23.00;19.75;;;;;21.77;54.45;102112.94;5024261;28;9244;-67
2022/05/18 09:39:45;;;;;;;;;17.25;16.25;;;;;21.75;54.26;102120.56;5023332;28;8913;-66
2022/05/18 09:42:16;;;;;;;;;17.25;16.50;;;;;21.73;54.53;102120.81;5025763;28;8844;-65
2022/05/18 09:45:06;;;;;;;;;17.75;16.00;;;;;21.71;54.37;102128.44;5025743;28;8833;-66
2022/05/18 09:47:41;;;;;;;;;19.50;18.25;;;;;21.60;54.40;102126.53;5024711;28;8929;-67
2022/05/18 09:50:09;;;;;;;;;13.25;12.50;;;;;21.55;54.41;102133.78;5024904;28;8977;-67
2022/05/18 09:52:38;;;;;;;;;16.50;14.50;;;;;21.52;54.36;102135.09;5022997;28;8941;-68
2022/05/18 09:55:10;;;;;;;;;19.50;19.50;;;;;21.52;54.23;102128.78;5023427;28;8815;-65
2022/05/18 09:57:47;;;;;;;;;19.00;15.50;;;;;21.51;54.43;102138.06;5020372;28;8846;-68
2022/05/18 10:00:19;;;;;;;;;11.25;11.25;;;;;21.47;54.80;102135.81;5020715;28;8849;-68
2022/05/18 10:08:44;;;;;;;;;11.00;9.75;;;;;21.67;54.59;102140.97;5001491;28;8932;-65
2022/05/18 10:11:17;;;;;;;;;17.75;15.75;;;;;21.77;54.33;102134.03;5024069;28;8841;-67
2022/05/18 10:14:24;;;;;;;;;18.00;15.00;;;;;21.88;53.66;102141.44;5024640;28;9637;-67
2022/05/18 10:17:05;;;;;;;;;14.75;14.75;;;;;21.85;53.43;102144.66;5024460;28;8852;-67
2022/05/18 10:19:36;;;;;;;;;8.50;8.50;;;;;21.93;53.51;102136.06;5079177;23;8883;-66
2022/05/18 10:22:06;;;;;;;;;21.50;15.00;;;;;21.98;52.77;102137.00;5057629;28;8904;-66
2022/05/18 10:24:39;;;;;;;;;14.75;14.00;;;;;21.98;53.54;102138.94;5061419;28;8831;-66
2022/05/18 10:27:12;;;;;;;;;19.75;18.25;;;;;21.97;53.19;102140.00;5060021;28;8827;-64
2022/05/18 10:29:41;;;;;;;;;11.00;11.00;;;;;22.00;52.85;102133.19;5045317;28;8865;-67
2022/05/18 10:32:21;;;;;;;;;15.00;15.00;;;;;21.98;52.96;102138.94;5041952;28;8921;-67
2022/05/18 10:34:54;;;;;;;;;13.75;13.25;;;;;21.92;52.67;102131.66;5039696;28;8877;-64
2022/05/18 10:37:31;;;;;;;;;14.50;12.00;;;;;21.94;53.12;102132.25;5041262;28;9551;-66
2022/05/18 10:40:12;;;;;;;;;11.25;10.25;;;;;22.03;52.99;102132.72;5043237;28;8849;-66
2022/05/18 10:42:54;;;;;;;;;13.25;10.00;;;;;22.16;52.85;102133.34;5042692;28;8841;-65
2022/05/18 10:45:27;;;;;;;;;9.25;9.25;;;;;22.34;52.31;102124.13;5038898;28;8870;-64
2022/05/18 10:47:57;;;;;;;;;13.00;12.75;;;;;22.39;51.82;102126.16;5040037;28;9617;-65
2022/05/18 10:50:34;;;;;;;;;23.00;22.75;;;;;22.44;52.12;102123.50;5057732;28;8881;-66
2022/05/18 10:53:20;;;;;;;;;14.75;13.25;;;;;22.49;51.26;102129.13;5041818;28;8881;-65
2022/05/18 10:56:10;;;;;;;;;13.25;11.75;;;;;22.56;51.21;102118.81;5041025;28;8864;-65
2022/05/18 10:58:44;;;;;;;;;13.00;11.25;;;;;22.61;51.63;102116.19;5041773;28;8927;-65
2022/05/18 11:01:32;;;;;;;;;11.50;10.00;;;;;22.71;50.91;102116.38;5041334;28;8858;-63
2022/05/18 11:04:11;;;;;;;;;12.25;10.00;;;;;22.77;51.61;102105.50;5042820;28;8864;-64
2022/05/18 11:06:40;;;;;;;;;6.00;6.00;;;;;22.81;51.30;102113.03;5031360;28;8848;-65
2022/05/18 11:09:13;;;;;;;;;12.50;12.25;;;;;22.87;50.40;102119.44;5042460;28;8822;-65
2022/05/18 11:11:49;;;;;;;;;11.50;10.50;;;;;22.89;50.42;102114.53;5036312;28;8906;-64
2022/05/18 11:14:33;;;;;;;;;13.00;12.25;;;;;22.81;50.17;102112.16;5039062;28;8857;-65
2022/05/18 11:17:02;;;;;;;;;11.75;8.50;;;;;22.80;50.58;102121.47;5043878;28;8844;-65
2022/05/18 11:19:54;;;;;;;;;8.50;8.50;;;;;22.85;50.86;102135.31;5037266;28;8946;-66
2022/05/18 11:22:32;;;;;;;;;8.00;8.00;;;;;22.86;51.05;102137.00;5036438;28;9020;-65
2022/05/18 11:25:33;;;;;;;;;9.25;8.00;;;;;22.86;50.59;102139.72;5037822;28;8905;-66
2022/05/18 11:28:31;;;;;;;;;9.00;9.00;;;;;22.75;49.67;102130.47;5042046;28;8874;-65
2022/05/18 11:31:26;;;;;;;;;5.75;5.75;;;;;22.75;50.41;102135.13;5044231;28;8911;-65
2022/05/18 11:34:21;;;;;;;;;7.00;6.75;;;;;22.77;50.72;102139.28;5034527;28;8840;-65
2022/05/18 11:37:06;;;;;;;;;8.75;7.25;;;;;22.75;50.71;102129.63;5056458;28;8826;-65
2022/05/18 11:39:39;;;;;;;;;12.25;12.00;;;;;22.68;50.76;102127.84;5037519;28;9575;-65
2022/05/18 11:42:38;;;;;;;;;7.50;7.50;;;;;22.66;51.23;102127.28;5040227;28;8947;-65
2022/05/18 11:45:32;;;;;;;;;9.00;9.00;;;;;22.63;51.05;102127.75;5034228;28;10100;-66
2022/05/18 11:48:10;;;;;;;;;10.75;10.50;;;;;22.57;51.39;102119.69;5024522;28;8928;-66
2022/05/18 11:50:51;;;;;;;;;11.50;11.25;;;;;22.52;51.19;102128.59;5035101;28;8860;-66
2022/05/18 11:53:56;;;;;;;;;6.50;6.50;;;;;22.52;51.57;102122.28;5030638;28;8845;-66
2022/05/18 11:56:46;;;;;;;;;10.50;10.50;;;;;22.61;51.50;102116.19;5764997;22;8972;-67